sensor_id;sensor_type;location;lat;lon;timestamp;P1;durP1;ratioP1;P2;durP2;ratioP2
46765;SDS011;32527;51.986;5.842;2023-04-15T00:01:09;7.00;;;4.28;;
46765;SDS011;32527;51.986;5.842;2023-04-15T00:03:35;7.82;;;5.30;;
46765;SDS011;32527;51.986;5.842;2023-04-15T00:06:01;9.77;;;5.50;;
46765;SDS011;32527;51.986;5.842;2023-04-15T00:08:27;6.60;;;4.45;;
46765;SDS011;32527;51.986;5.842;2023-04-15T00:10:54;10.98;;;4.30;;
46765;SDS011;32527;51.986;5.842;2023-04-15T00:13:20;6.93;;;4.40;;
46765;SDS011;32527;51.986;5.842;2023-04-15T00:15:46;10.40;;;6.35;;
46765;SDS011;32527;51.986;5.842;2023-04-15T00:18:12;9.70;;;4.72;;
46765;SDS011;32527;51.986;5.842;2023-04-15T00:20:38;9.00;;;4.57;;
46765;SDS011;32527;51.986;5.842;2023-04-15T00:23:04;9.15;;;4.70;;
46765;SDS011;32527;51.986;5.842;2023-04-15T00:25:30;10.73;;;5.10;;
46765;SDS011;32527;51.986;5.842;2023-04-15T00:27:56;13.18;;;6.18;;
46765;SDS011;32527;51.986;5.842;2023-04-15T00:30:22;10.27;;;5.15;;
46765;SDS011;32527;51.986;5.842;2023-04-15T00:32:48;11.10;;;4.90;;
46765;SDS011;32527;51.986;5.842;2023-04-15T00:35:17;6.90;;;4.90;;
46765;SDS011;32527;51.986;5.842;2023-04-15T00:37:43;7.32;;;4.82;;
46765;SDS011;32527;51.986;5.842;2023-04-15T00:40:11;9.00;;;5.13;;
46765;SDS011;32527;51.986;5.842;2023-04-15T00:42:38;8.05;;;4.63;;
46765;SDS011;32527;51.986;5.842;2023-04-15T00:45:04;11.07;;;5.28;;
46765;SDS011;32527;51.986;5.842;2023-04-15T00:47:31;11.23;;;4.85;;
46765;SDS011;32527;51.986;5.842;2023-04-15T00:49:59;8.52;;;5.45;;
46765;SDS011;32527;51.986;5.842;2023-04-15T00:52:25;7.05;;;5.25;;
46765;SDS011;32527;51.986;5.842;2023-04-15T00:54:51;9.82;;;5.65;;
46765;SDS011;32527;51.986;5.842;2023-04-15T00:57:17;11.45;;;5.18;;
46765;SDS011;32527;51.986;5.842;2023-04-15T00:59:43;9.98;;;5.22;;
46765;SDS011;32527;51.986;5.842;2023-04-15T01:02:11;9.07;;;5.20;;
46765;SDS011;32527;51.986;5.842;2023-04-15T01:04:37;8.45;;;5.32;;
46765;SDS011;32527;51.986;5.842;2023-04-15T01:07:02;11.77;;;4.63;;
46765;SDS011;32527;51.986;5.842;2023-04-15T01:09:28;10.15;;;5.05;;
46765;SDS011;32527;51.986;5.842;2023-04-15T01:11:54;10.70;;;4.88;;
46765;SDS011;32527;51.986;5.842;2023-04-15T01:14:22;9.18;;;5.50;;
46765;SDS011;32527;51.986;5.842;2023-04-15T01:16:48;9.57;;;4.68;;
46765;SDS011;32527;51.986;5.842;2023-04-15T01:19:15;8.75;;;5.53;;
46765;SDS011;32527;51.986;5.842;2023-04-15T01:21:42;9.98;;;5.75;;
46765;SDS011;32527;51.986;5.842;2023-04-15T01:24:08;7.38;;;4.88;;
46765;SDS011;32527;51.986;5.842;2023-04-15T01:26:38;8.88;;;5.22;;
46765;SDS011;32527;51.986;5.842;2023-04-15T01:29:06;13.32;;;5.43;;
46765;SDS011;32527;51.986;5.842;2023-04-15T01:31:32;12.93;;;5.75;;
46765;SDS011;32527;51.986;5.842;2023-04-15T01:33:58;10.57;;;5.40;;
46765;SDS011;32527;51.986;5.842;2023-04-15T01:36:25;9.85;;;5.00;;
46765;SDS011;32527;51.986;5.842;2023-04-15T01:38:52;9.75;;;5.40;;
46765;SDS011;32527;51.986;5.842;2023-04-15T01:41:26;8.73;;;5.35;;
46765;SDS011;32527;51.986;5.842;2023-04-15T01:43:52;8.38;;;6.22;;
46765;SDS011;32527;51.986;5.842;2023-04-15T01:46:18;8.20;;;5.18;;
46765;SDS011;32527;51.986;5.842;2023-04-15T01:48:44;8.88;;;5.53;;
46765;SDS011;32527;51.986;5.842;2023-04-15T01:51:10;9.93;;;5.55;;
46765;SDS011;32527;51.986;5.842;2023-04-15T01:53:37;10.45;;;6.22;;
46765;SDS011;32527;51.986;5.842;2023-04-15T01:56:03;10.25;;;5.93;;
46765;SDS011;32527;51.986;5.842;2023-04-15T01:58:28;8.98;;;5.55;;
46765;SDS011;32527;51.986;5.842;2023-04-15T02:00:55;8.20;;;5.15;;
46765;SDS011;32527;51.986;5.842;2023-04-15T02:03:21;14.32;;;6.57;;
46765;SDS011;32527;51.986;5.842;2023-04-15T02:05:47;9.82;;;5.30;;
46765;SDS011;32527;51.986;5.842;2023-04-15T02:08:15;10.77;;;6.00;;
46765;SDS011;32527;51.986;5.842;2023-04-15T02:10:41;8.65;;;5.32;;
46765;SDS011;32527;51.986;5.842;2023-04-15T02:13:07;11.50;;;6.25;;
46765;SDS011;32527;51.986;5.842;2023-04-15T02:15:33;9.75;;;5.32;;
46765;SDS011;32527;51.986;5.842;2023-04-15T02:17:59;8.85;;;5.38;;
46765;SDS011;32527;51.986;5.842;2023-04-15T02:20:25;10.32;;;5.65;;
46765;SDS011;32527;51.986;5.842;2023-04-15T02:22:52;8.30;;;5.18;;
46765;SDS011;32527;51.986;5.842;2023-04-15T02:25:18;10.98;;;5.70;;
46765;SDS011;32527;51.986;5.842;2023-04-15T02:27:44;13.45;;;5.78;;
46765;SDS011;32527;51.986;5.842;2023-04-15T02:30:10;10.63;;;5.80;;
46765;SDS011;32527;51.986;5.842;2023-04-15T02:32:37;12.00;;;5.35;;
46765;SDS011;32527;51.986;5.842;2023-04-15T02:35:03;12.27;;;5.85;;
46765;SDS011;32527;51.986;5.842;2023-04-15T02:37:30;12.30;;;5.82;;
46765;SDS011;32527;51.986;5.842;2023-04-15T02:39:56;12.15;;;5.90;;
46765;SDS011;32527;51.986;5.842;2023-04-15T02:42:23;9.80;;;5.40;;
46765;SDS011;32527;51.986;5.842;2023-04-15T02:44:51;9.85;;;5.45;;
46765;SDS011;32527;51.986;5.842;2023-04-15T02:47:20;9.63;;;5.35;;
46765;SDS011;32527;51.986;5.842;2023-04-15T02:49:47;10.00;;;5.63;;
46765;SDS011;32527;51.986;5.842;2023-04-15T02:52:13;11.63;;;5.88;;
46765;SDS011;32527;51.986;5.842;2023-04-15T02:54:39;9.73;;;6.32;;
46765;SDS011;32527;51.986;5.842;2023-04-15T02:57:04;9.77;;;6.30;;
46765;SDS011;32527;51.986;5.842;2023-04-15T02:59:31;11.38;;;5.63;;
46765;SDS011;32527;51.986;5.842;2023-04-15T03:01:57;11.23;;;6.22;;
46765;SDS011;32527;51.986;5.842;2023-04-15T03:04:26;11.73;;;6.28;;
46765;SDS011;32527;51.986;5.842;2023-04-15T03:06:54;10.55;;;6.03;;
46765;SDS011;32527;51.986;5.842;2023-04-15T03:09:21;9.50;;;6.15;;
46765;SDS011;32527;51.986;5.842;2023-04-15T03:11:47;13.38;;;7.10;;
46765;SDS011;32527;51.986;5.842;2023-04-15T03:14:14;12.25;;;6.90;;
46765;SDS011;32527;51.986;5.842;2023-04-15T03:16:44;11.15;;;6.63;;
46765;SDS011;32527;51.986;5.842;2023-04-15T03:19:14;11.32;;;6.50;;
46765;SDS011;32527;51.986;5.842;2023-04-15T03:21:41;10.15;;;6.28;;
46765;SDS011;32527;51.986;5.842;2023-04-15T03:24:07;9.48;;;6.60;;
46765;SDS011;32527;51.986;5.842;2023-04-15T03:26:33;11.45;;;6.53;;
46765;SDS011;32527;51.986;5.842;2023-04-15T03:29:04;12.65;;;7.10;;
46765;SDS011;32527;51.986;5.842;2023-04-15T03:31:30;9.95;;;6.28;;
46765;SDS011;32527;51.986;5.842;2023-04-15T03:33:56;11.63;;;7.25;;
46765;SDS011;32527;51.986;5.842;2023-04-15T03:36:22;10.63;;;6.40;;
46765;SDS011;32527;51.986;5.842;2023-04-15T03:38:48;15.23;;;6.80;;
46765;SDS011;32527;51.986;5.842;2023-04-15T03:41:14;17.02;;;6.70;;
46765;SDS011;32527;51.986;5.842;2023-04-15T03:43:40;14.63;;;7.15;;
46765;SDS011;32527;51.986;5.842;2023-04-15T03:46:06;15.32;;;7.03;;
46765;SDS011;32527;51.986;5.842;2023-04-15T03:48:32;18.02;;;7.47;;
46765;SDS011;32527;51.986;5.842;2023-04-15T03:50:58;12.68;;;7.03;;
46765;SDS011;32527;51.986;5.842;2023-04-15T03:53:24;9.43;;;6.90;;
46765;SDS011;32527;51.986;5.842;2023-04-15T03:55:50;10.93;;;6.55;;
46765;SDS011;32527;51.986;5.842;2023-04-15T03:58:16;14.60;;;7.80;;
46765;SDS011;32527;51.986;5.842;2023-04-15T04:00:43;13.27;;;7.43;;
46765;SDS011;32527;51.986;5.842;2023-04-15T04:03:09;10.55;;;7.57;;
46765;SDS011;32527;51.986;5.842;2023-04-15T04:05:35;14.85;;;7.30;;
46765;SDS011;32527;51.986;5.842;2023-04-15T04:08:03;12.65;;;7.60;;
46765;SDS011;32527;51.986;5.842;2023-04-15T04:10:29;11.75;;;7.70;;
46765;SDS011;32527;51.986;5.842;2023-04-15T04:12:55;15.48;;;7.25;;
46765;SDS011;32527;51.986;5.842;2023-04-15T04:15:21;13.93;;;7.60;;
46765;SDS011;32527;51.986;5.842;2023-04-15T04:17:46;17.30;;;9.48;;
46765;SDS011;32527;51.986;5.842;2023-04-15T04:20:12;12.52;;;7.13;;
46765;SDS011;32527;51.986;5.842;2023-04-15T04:22:38;10.95;;;7.90;;
46765;SDS011;32527;51.986;5.842;2023-04-15T04:25:05;13.15;;;7.78;;
46765;SDS011;32527;51.986;5.842;2023-04-15T04:27:32;15.75;;;7.68;;
46765;SDS011;32527;51.986;5.842;2023-04-15T04:29:58;19.77;;;8.77;;
46765;SDS011;32527;51.986;5.842;2023-04-15T04:32:24;16.85;;;8.88;;
46765;SDS011;32527;51.986;5.842;2023-04-15T04:34:51;17.30;;;8.75;;
46765;SDS011;32527;51.986;5.842;2023-04-15T04:37:16;16.95;;;7.90;;
46765;SDS011;32527;51.986;5.842;2023-04-15T04:39:43;14.40;;;9.75;;
46765;SDS011;32527;51.986;5.842;2023-04-15T04:42:09;16.58;;;9.45;;
46765;SDS011;32527;51.986;5.842;2023-04-15T04:44:35;15.05;;;8.43;;
46765;SDS011;32527;51.986;5.842;2023-04-15T04:47:01;14.50;;;8.13;;
46765;SDS011;32527;51.986;5.842;2023-04-15T04:49:27;14.77;;;9.02;;
46765;SDS011;32527;51.986;5.842;2023-04-15T04:51:53;14.45;;;8.95;;
46765;SDS011;32527;51.986;5.842;2023-04-15T04:54:19;12.25;;;8.70;;
46765;SDS011;32527;51.986;5.842;2023-04-15T04:56:45;17.80;;;8.60;;
46765;SDS011;32527;51.986;5.842;2023-04-15T04:59:11;15.07;;;9.15;;
46765;SDS011;32527;51.986;5.842;2023-04-15T05:01:38;15.27;;;8.90;;
46765;SDS011;32527;51.986;5.842;2023-04-15T05:04:04;14.38;;;8.68;;
46765;SDS011;32527;51.986;5.842;2023-04-15T05:06:31;15.55;;;9.13;;
46765;SDS011;32527;51.986;5.842;2023-04-15T05:08:57;16.60;;;9.10;;
46765;SDS011;32527;51.986;5.842;2023-04-15T05:11:23;15.40;;;9.23;;
46765;SDS011;32527;51.986;5.842;2023-04-15T05:13:49;14.27;;;8.45;;
46765;SDS011;32527;51.986;5.842;2023-04-15T05:16:14;12.93;;;8.90;;
46765;SDS011;32527;51.986;5.842;2023-04-15T05:18:41;16.38;;;9.75;;
46765;SDS011;32527;51.986;5.842;2023-04-15T05:21:07;17.27;;;8.55;;
46765;SDS011;32527;51.986;5.842;2023-04-15T05:23:33;16.60;;;8.85;;
46765;SDS011;32527;51.986;5.842;2023-04-15T05:25:59;14.40;;;8.48;;
46765;SDS011;32527;51.986;5.842;2023-04-15T05:28:25;14.43;;;9.40;;
46765;SDS011;32527;51.986;5.842;2023-04-15T05:30:51;16.83;;;9.70;;
46765;SDS011;32527;51.986;5.842;2023-04-15T05:33:17;17.75;;;10.52;;
46765;SDS011;32527;51.986;5.842;2023-04-15T05:35:43;16.52;;;8.57;;
46765;SDS011;32527;51.986;5.842;2023-04-15T05:38:09;12.32;;;8.57;;
46765;SDS011;32527;51.986;5.842;2023-04-15T05:40:35;14.20;;;8.63;;
46765;SDS011;32527;51.986;5.842;2023-04-15T05:43:01;15.57;;;9.45;;
46765;SDS011;32527;51.986;5.842;2023-04-15T05:45:27;17.38;;;10.02;;
46765;SDS011;32527;51.986;5.842;2023-04-15T05:47:53;14.32;;;9.18;;
46765;SDS011;32527;51.986;5.842;2023-04-15T05:50:19;17.63;;;9.32;;
46765;SDS011;32527;51.986;5.842;2023-04-15T05:52:46;16.40;;;9.98;;
46765;SDS011;32527;51.986;5.842;2023-04-15T05:55:12;16.45;;;9.07;;
46765;SDS011;32527;51.986;5.842;2023-04-15T05:57:38;15.32;;;9.05;;
46765;SDS011;32527;51.986;5.842;2023-04-15T06:00:04;18.02;;;9.20;;
46765;SDS011;32527;51.986;5.842;2023-04-15T06:02:34;14.82;;;9.75;;
46765;SDS011;32527;51.986;5.842;2023-04-15T06:05:00;17.45;;;10.07;;
46765;SDS011;32527;51.986;5.842;2023-04-15T06:07:27;15.55;;;9.25;;
46765;SDS011;32527;51.986;5.842;2023-04-15T06:09:53;17.08;;;9.52;;
46765;SDS011;32527;51.986;5.842;2023-04-15T06:12:19;13.82;;;9.05;;
46765;SDS011;32527;51.986;5.842;2023-04-15T06:14:45;14.23;;;9.02;;
46765;SDS011;32527;51.986;5.842;2023-04-15T06:17:11;14.07;;;8.80;;
46765;SDS011;32527;51.986;5.842;2023-04-15T06:19:39;15.77;;;9.25;;
46765;SDS011;32527;51.986;5.842;2023-04-15T06:22:05;14.30;;;8.60;;
46765;SDS011;32527;51.986;5.842;2023-04-15T06:24:31;13.23;;;8.82;;
46765;SDS011;32527;51.986;5.842;2023-04-15T06:26:57;17.67;;;8.73;;
46765;SDS011;32527;51.986;5.842;2023-04-15T06:29:23;16.88;;;9.35;;
46765;SDS011;32527;51.986;5.842;2023-04-15T06:31:48;13.40;;;8.85;;
46765;SDS011;32527;51.986;5.842;2023-04-15T06:34:15;13.48;;;8.07;;
46765;SDS011;32527;51.986;5.842;2023-04-15T06:36:41;15.05;;;8.65;;
46765;SDS011;32527;51.986;5.842;2023-04-15T06:39:07;15.38;;;8.32;;
46765;SDS011;32527;51.986;5.842;2023-04-15T06:41:32;10.98;;;7.57;;
46765;SDS011;32527;51.986;5.842;2023-04-15T06:43:59;11.60;;;7.68;;
46765;SDS011;32527;51.986;5.842;2023-04-15T06:46:25;11.82;;;7.93;;
46765;SDS011;32527;51.986;5.842;2023-04-15T06:48:51;12.13;;;8.02;;
46765;SDS011;32527;51.986;5.842;2023-04-15T06:51:17;13.80;;;7.82;;
46765;SDS011;32527;51.986;5.842;2023-04-15T06:53:43;12.93;;;8.02;;
46765;SDS011;32527;51.986;5.842;2023-04-15T06:56:10;11.38;;;8.00;;
46765;SDS011;32527;51.986;5.842;2023-04-15T06:58:36;14.05;;;9.10;;
46765;SDS011;32527;51.986;5.842;2023-04-15T07:01:01;14.02;;;8.38;;
46765;SDS011;32527;51.986;5.842;2023-04-15T07:03:28;12.60;;;8.10;;
46765;SDS011;32527;51.986;5.842;2023-04-15T07:05:53;12.18;;;8.20;;
46765;SDS011;32527;51.986;5.842;2023-04-15T07:08:19;13.25;;;8.00;;
46765;SDS011;32527;51.986;5.842;2023-04-15T07:10:46;13.07;;;8.52;;
46765;SDS011;32527;51.986;5.842;2023-04-15T07:13:12;13.02;;;8.45;;
46765;SDS011;32527;51.986;5.842;2023-04-15T07:15:38;11.70;;;7.47;;
46765;SDS011;32527;51.986;5.842;2023-04-15T07:18:04;13.60;;;8.20;;
46765;SDS011;32527;51.986;5.842;2023-04-15T07:20:30;13.10;;;7.82;;
46765;SDS011;32527;51.986;5.842;2023-04-15T07:22:56;13.85;;;7.15;;
46765;SDS011;32527;51.986;5.842;2023-04-15T07:25:23;14.10;;;8.52;;
46765;SDS011;32527;51.986;5.842;2023-04-15T07:27:48;14.20;;;7.50;;
46765;SDS011;32527;51.986;5.842;2023-04-15T07:30:14;13.68;;;7.70;;
46765;SDS011;32527;51.986;5.842;2023-04-15T07:32:41;18.33;;;8.38;;
46765;SDS011;32527;51.986;5.842;2023-04-15T07:35:07;12.20;;;6.97;;
46765;SDS011;32527;51.986;5.842;2023-04-15T07:37:33;11.80;;;7.45;;
46765;SDS011;32527;51.986;5.842;2023-04-15T07:40:00;11.52;;;7.47;;
46765;SDS011;32527;51.986;5.842;2023-04-15T07:42:26;13.43;;;8.02;;
46765;SDS011;32527;51.986;5.842;2023-04-15T07:44:53;13.98;;;8.43;;
46765;SDS011;32527;51.986;5.842;2023-04-15T07:47:19;11.50;;;7.82;;
46765;SDS011;32527;51.986;5.842;2023-04-15T07:49:46;11.38;;;7.07;;
46765;SDS011;32527;51.986;5.842;2023-04-15T07:52:12;12.75;;;8.00;;
46765;SDS011;32527;51.986;5.842;2023-04-15T07:54:37;10.90;;;6.63;;
46765;SDS011;32527;51.986;5.842;2023-04-15T07:57:03;12.70;;;7.63;;
46765;SDS011;32527;51.986;5.842;2023-04-15T07:59:29;12.80;;;7.78;;
46765;SDS011;32527;51.986;5.842;2023-04-15T08:01:57;14.05;;;8.00;;
46765;SDS011;32527;51.986;5.842;2023-04-15T08:04:23;12.05;;;7.88;;
46765;SDS011;32527;51.986;5.842;2023-04-15T08:06:49;11.52;;;6.75;;
46765;SDS011;32527;51.986;5.842;2023-04-15T08:09:16;10.75;;;7.80;;
46765;SDS011;32527;51.986;5.842;2023-04-15T08:11:42;13.90;;;7.72;;
46765;SDS011;32527;51.986;5.842;2023-04-15T08:14:08;11.98;;;7.60;;
46765;SDS011;32527;51.986;5.842;2023-04-15T08:16:34;13.60;;;7.22;;
46765;SDS011;32527;51.986;5.842;2023-04-15T08:19:01;11.02;;;7.03;;
46765;SDS011;32527;51.986;5.842;2023-04-15T08:21:27;11.85;;;7.05;;
46765;SDS011;32527;51.986;5.842;2023-04-15T08:23:54;8.82;;;6.25;;
46765;SDS011;32527;51.986;5.842;2023-04-15T08:26:21;12.43;;;6.55;;
46765;SDS011;32527;51.986;5.842;2023-04-15T08:28:47;11.52;;;5.90;;
46765;SDS011;32527;51.986;5.842;2023-04-15T08:31:14;12.48;;;5.78;;
46765;SDS011;32527;51.986;5.842;2023-04-15T08:33:41;8.77;;;5.60;;
46765;SDS011;32527;51.986;5.842;2023-04-15T08:36:07;6.90;;;4.38;;
46765;SDS011;32527;51.986;5.842;2023-04-15T08:38:33;9.65;;;4.93;;
46765;SDS011;32527;51.986;5.842;2023-04-15T08:41:02;9.50;;;6.32;;
46765;SDS011;32527;51.986;5.842;2023-04-15T08:43:34;7.57;;;4.30;;
46765;SDS011;32527;51.986;5.842;2023-04-15T08:46:06;5.88;;;3.67;;
46765;SDS011;32527;51.986;5.842;2023-04-15T08:48:32;5.80;;;3.70;;
46765;SDS011;32527;51.986;5.842;2023-04-15T08:50:59;6.35;;;4.40;;
46765;SDS011;32527;51.986;5.842;2023-04-15T08:53:26;7.50;;;3.78;;
46765;SDS011;32527;51.986;5.842;2023-04-15T08:55:53;8.02;;;4.03;;
46765;SDS011;32527;51.986;5.842;2023-04-15T08:58:21;6.88;;;4.57;;
46765;SDS011;32527;51.986;5.842;2023-04-15T09:00:49;7.75;;;3.80;;
46765;SDS011;32527;51.986;5.842;2023-04-15T09:03:15;6.05;;;3.40;;
46765;SDS011;32527;51.986;5.842;2023-04-15T09:05:41;5.68;;;3.70;;
46765;SDS011;32527;51.986;5.842;2023-04-15T09:08:07;6.28;;;3.67;;
46765;SDS011;32527;51.986;5.842;2023-04-15T09:10:33;8.90;;;3.78;;
46765;SDS011;32527;51.986;5.842;2023-04-15T09:12:59;8.32;;;3.92;;
46765;SDS011;32527;51.986;5.842;2023-04-15T09:15:26;7.32;;;3.85;;
46765;SDS011;32527;51.986;5.842;2023-04-15T09:17:53;6.40;;;4.03;;
46765;SDS011;32527;51.986;5.842;2023-04-15T09:20:19;6.07;;;3.92;;
46765;SDS011;32527;51.986;5.842;2023-04-15T09:22:46;6.32;;;3.70;;
46765;SDS011;32527;51.986;5.842;2023-04-15T09:27:54;7.60;;;4.07;;
46765;SDS011;32527;51.986;5.842;2023-04-15T09:30:27;6.47;;;3.97;;
46765;SDS011;32527;51.986;5.842;2023-04-15T09:32:54;10.20;;;4.38;;
46765;SDS011;32527;51.986;5.842;2023-04-15T09:35:21;6.60;;;4.20;;
46765;SDS011;32527;51.986;5.842;2023-04-15T09:37:49;6.03;;;4.28;;
46765;SDS011;32527;51.986;5.842;2023-04-15T09:41:00;6.72;;;3.65;;
46765;SDS011;32527;51.986;5.842;2023-04-15T09:43:02;7.68;;;3.47;;
46765;SDS011;32527;51.986;5.842;2023-04-15T09:45:29;5.80;;;3.53;;
46765;SDS011;32527;51.986;5.842;2023-04-15T09:47:56;7.28;;;3.92;;
46765;SDS011;32527;51.986;5.842;2023-04-15T09:50:26;6.18;;;4.13;;
46765;SDS011;32527;51.986;5.842;2023-04-15T09:52:53;8.02;;;5.47;;
46765;SDS011;32527;51.986;5.842;2023-04-15T09:55:19;6.65;;;3.72;;
46765;SDS011;32527;51.986;5.842;2023-04-15T09:57:45;5.05;;;3.63;;
46765;SDS011;32527;51.986;5.842;2023-04-15T10:00:11;5.53;;;3.80;;
46765;SDS011;32527;51.986;5.842;2023-04-15T10:02:38;7.10;;;3.83;;
46765;SDS011;32527;51.986;5.842;2023-04-15T10:05:05;7.72;;;3.83;;
46765;SDS011;32527;51.986;5.842;2023-04-15T10:07:34;6.32;;;4.13;;
46765;SDS011;32527;51.986;5.842;2023-04-15T10:10:00;6.97;;;3.22;;
46765;SDS011;32527;51.986;5.842;2023-04-15T10:12:26;5.15;;;3.53;;
46765;SDS011;32527;51.986;5.842;2023-04-15T10:15:03;7.80;;;3.53;;
46765;SDS011;32527;51.986;5.842;2023-04-15T10:17:29;5.88;;;3.75;;
46765;SDS011;32527;51.986;5.842;2023-04-15T10:20:03;6.53;;;4.05;;
46765;SDS011;32527;51.986;5.842;2023-04-15T10:22:29;5.90;;;3.75;;
46765;SDS011;32527;51.986;5.842;2023-04-15T10:24:56;6.93;;;3.80;;
46765;SDS011;32527;51.986;5.842;2023-04-15T10:27:24;6.25;;;3.45;;
46765;SDS011;32527;51.986;5.842;2023-04-15T10:29:50;5.65;;;3.60;;
46765;SDS011;32527;51.986;5.842;2023-04-15T10:32:20;7.53;;;4.03;;
46765;SDS011;32527;51.986;5.842;2023-04-15T10:34:47;9.10;;;3.53;;
46765;SDS011;32527;51.986;5.842;2023-04-15T10:37:21;6.05;;;3.65;;
46765;SDS011;32527;51.986;5.842;2023-04-15T10:40:23;5.45;;;3.50;;
46765;SDS011;32527;51.986;5.842;2023-04-15T10:42:48;8.05;;;4.00;;
46765;SDS011;32527;51.986;5.842;2023-04-15T10:45:17;5.90;;;3.63;;
46765;SDS011;32527;51.986;5.842;2023-04-15T10:47:43;4.80;;;2.83;;
46765;SDS011;32527;51.986;5.842;2023-04-15T10:50:09;5.65;;;3.15;;
46765;SDS011;32527;51.986;5.842;2023-04-15T10:52:36;4.88;;;2.70;;
46765;SDS011;32527;51.986;5.842;2023-04-15T10:57:36;4.95;;;3.35;;
46765;SDS011;32527;51.986;5.842;2023-04-15T11:00:10;5.63;;;3.17;;
46765;SDS011;32527;51.986;5.842;2023-04-15T11:02:38;4.78;;;3.08;;
46765;SDS011;32527;51.986;5.842;2023-04-15T11:05:13;5.03;;;3.10;;
46765;SDS011;32527;51.986;5.842;2023-04-15T11:07:45;4.93;;;3.40;;
46765;SDS011;32527;51.986;5.842;2023-04-15T11:12:42;4.97;;;3.05;;
46765;SDS011;32527;51.986;5.842;2023-04-15T11:18:23;4.32;;;2.97;;
46765;SDS011;32527;51.986;5.842;2023-04-15T11:20:51;4.70;;;2.92;;
46765;SDS011;32527;51.986;5.842;2023-04-15T11:23:37;4.55;;;2.40;;
46765;SDS011;32527;51.986;5.842;2023-04-15T11:26:07;6.22;;;3.42;;
46765;SDS011;32527;51.986;5.842;2023-04-15T11:28:35;5.07;;;2.97;;
46765;SDS011;32527;51.986;5.842;2023-04-15T11:31:11;4.78;;;2.88;;
46765;SDS011;32527;51.986;5.842;2023-04-15T11:33:59;5.20;;;2.78;;
46765;SDS011;32527;51.986;5.842;2023-04-15T11:36:27;4.47;;;2.30;;
46765;SDS011;32527;51.986;5.842;2023-04-15T11:38:53;7.32;;;2.67;;
46765;SDS011;32527;51.986;5.842;2023-04-15T11:41:20;7.35;;;2.92;;
46765;SDS011;32527;51.986;5.842;2023-04-15T11:43:47;3.38;;;2.17;;
46765;SDS011;32527;51.986;5.842;2023-04-15T11:46:13;3.85;;;2.28;;
46765;SDS011;32527;51.986;5.842;2023-04-15T11:48:41;6.10;;;2.53;;
46765;SDS011;32527;51.986;5.842;2023-04-15T11:51:09;3.72;;;2.25;;
46765;SDS011;32527;51.986;5.842;2023-04-15T11:53:42;7.72;;;2.28;;
46765;SDS011;32527;51.986;5.842;2023-04-15T11:56:15;4.82;;;2.22;;
46765;SDS011;32527;51.986;5.842;2023-04-15T11:58:51;4.55;;;2.35;;
46765;SDS011;32527;51.986;5.842;2023-04-15T12:01:35;7.55;;;2.38;;
46765;SDS011;32527;51.986;5.842;2023-04-15T12:04:13;3.53;;;1.70;;
46765;SDS011;32527;51.986;5.842;2023-04-15T12:06:41;3.92;;;2.13;;
46765;SDS011;32527;51.986;5.842;2023-04-15T12:09:17;5.20;;;2.72;;
46765;SDS011;32527;51.986;5.842;2023-04-15T12:14:21;3.80;;;2.33;;
46765;SDS011;32527;51.986;5.842;2023-04-15T12:16:55;7.20;;;2.10;;
46765;SDS011;32527;51.986;5.842;2023-04-15T12:19:24;4.20;;;2.13;;
46765;SDS011;32527;51.986;5.842;2023-04-15T12:22:01;3.40;;;2.05;;
46765;SDS011;32527;51.986;5.842;2023-04-15T12:24:32;3.97;;;1.92;;
46765;SDS011;32527;51.986;5.842;2023-04-15T12:27:02;2.88;;;2.08;;
46765;SDS011;32527;51.986;5.842;2023-04-15T12:29:30;5.55;;;2.25;;
46765;SDS011;32527;51.986;5.842;2023-04-15T12:32:09;7.50;;;2.17;;
46765;SDS011;32527;51.986;5.842;2023-04-15T12:34:37;4.32;;;2.10;;
46765;SDS011;32527;51.986;5.842;2023-04-15T12:37:08;3.80;;;2.22;;
46765;SDS011;32527;51.986;5.842;2023-04-15T12:39:35;4.20;;;2.50;;
46765;SDS011;32527;51.986;5.842;2023-04-15T12:42:05;5.05;;;2.58;;
46765;SDS011;32527;51.986;5.842;2023-04-15T12:44:31;4.00;;;2.65;;
46765;SDS011;32527;51.986;5.842;2023-04-15T12:46:58;3.78;;;2.53;;
46765;SDS011;32527;51.986;5.842;2023-04-15T12:49:24;6.70;;;3.05;;
46765;SDS011;32527;51.986;5.842;2023-04-15T12:51:54;5.90;;;3.22;;
46765;SDS011;32527;51.986;5.842;2023-04-15T12:54:21;3.95;;;2.42;;
46765;SDS011;32527;51.986;5.842;2023-04-15T12:56:48;5.60;;;3.05;;
46765;SDS011;32527;51.986;5.842;2023-04-15T12:59:14;3.75;;;2.63;;
46765;SDS011;32527;51.986;5.842;2023-04-15T13:01:42;3.50;;;2.20;;
46765;SDS011;32527;51.986;5.842;2023-04-15T13:04:08;3.10;;;1.90;;
46765;SDS011;32527;51.986;5.842;2023-04-15T13:06:35;2.10;;;1.80;;
46765;SDS011;32527;51.986;5.842;2023-04-15T13:09:02;3.58;;;2.10;;
46765;SDS011;32527;51.986;5.842;2023-04-15T13:11:29;3.60;;;2.40;;
46765;SDS011;32527;51.986;5.842;2023-04-15T13:14:02;1.85;;;1.58;;
46765;SDS011;32527;51.986;5.842;2023-04-15T13:16:28;3.53;;;1.55;;
46765;SDS011;32527;51.986;5.842;2023-04-15T13:18:56;3.35;;;1.80;;
46765;SDS011;32527;51.986;5.842;2023-04-15T13:21:22;2.67;;;1.85;;
46765;SDS011;32527;51.986;5.842;2023-04-15T13:23:48;2.95;;;1.55;;
46765;SDS011;32527;51.986;5.842;2023-04-15T13:26:15;6.75;;;2.00;;
46765;SDS011;32527;51.986;5.842;2023-04-15T13:28:42;3.30;;;1.77;;
46765;SDS011;32527;51.986;5.842;2023-04-15T13:31:08;5.20;;;1.70;;
46765;SDS011;32527;51.986;5.842;2023-04-15T13:33:34;4.00;;;1.58;;
46765;SDS011;32527;51.986;5.842;2023-04-15T13:36:00;2.45;;;1.55;;
46765;SDS011;32527;51.986;5.842;2023-04-15T13:38:26;5.93;;;2.10;;
46765;SDS011;32527;51.986;5.842;2023-04-15T13:40:52;4.75;;;1.80;;
46765;SDS011;32527;51.986;5.842;2023-04-15T13:43:18;5.78;;;2.15;;
46765;SDS011;32527;51.986;5.842;2023-04-15T13:45:45;3.22;;;1.60;;
46765;SDS011;32527;51.986;5.842;2023-04-15T13:48:11;2.67;;;1.52;;
46765;SDS011;32527;51.986;5.842;2023-04-15T13:50:37;2.97;;;1.65;;
46765;SDS011;32527;51.986;5.842;2023-04-15T13:53:03;4.07;;;1.80;;
46765;SDS011;32527;51.986;5.842;2023-04-15T13:55:29;3.58;;;1.88;;
46765;SDS011;32527;51.986;5.842;2023-04-15T13:57:55;4.18;;;2.35;;
46765;SDS011;32527;51.986;5.842;2023-04-15T14:00:21;3.92;;;1.98;;
46765;SDS011;32527;51.986;5.842;2023-04-15T14:02:47;4.25;;;1.95;;
46765;SDS011;32527;51.986;5.842;2023-04-15T14:05:13;1.77;;;1.52;;
46765;SDS011;32527;51.986;5.842;2023-04-15T14:07:39;3.50;;;1.38;;
46765;SDS011;32527;51.986;5.842;2023-04-15T14:10:05;4.15;;;1.75;;
46765;SDS011;32527;51.986;5.842;2023-04-15T14:12:31;2.83;;;1.42;;
46765;SDS011;32527;51.986;5.842;2023-04-15T14:14:57;3.30;;;1.60;;
46765;SDS011;32527;51.986;5.842;2023-04-15T14:17:23;4.80;;;1.70;;
46765;SDS011;32527;51.986;5.842;2023-04-15T14:19:49;2.00;;;1.17;;
46765;SDS011;32527;51.986;5.842;2023-04-15T14:22:15;3.15;;;1.70;;
46765;SDS011;32527;51.986;5.842;2023-04-15T14:24:42;3.65;;;1.88;;
46765;SDS011;32527;51.986;5.842;2023-04-15T14:27:08;4.93;;;2.15;;
46765;SDS011;32527;51.986;5.842;2023-04-15T14:29:36;5.03;;;1.80;;
46765;SDS011;32527;51.986;5.842;2023-04-15T14:32:02;3.50;;;1.77;;
46765;SDS011;32527;51.986;5.842;2023-04-15T14:34:28;3.15;;;1.67;;
46765;SDS011;32527;51.986;5.842;2023-04-15T14:36:54;4.95;;;1.85;;
46765;SDS011;32527;51.986;5.842;2023-04-15T14:39:20;3.25;;;2.33;;
46765;SDS011;32527;51.986;5.842;2023-04-15T14:41:46;3.28;;;2.03;;
46765;SDS011;32527;51.986;5.842;2023-04-15T14:44:12;3.22;;;1.88;;
46765;SDS011;32527;51.986;5.842;2023-04-15T14:46:38;4.70;;;1.95;;
46765;SDS011;32527;51.986;5.842;2023-04-15T14:49:07;5.20;;;1.75;;
46765;SDS011;32527;51.986;5.842;2023-04-15T14:51:33;5.50;;;1.92;;
46765;SDS011;32527;51.986;5.842;2023-04-15T14:53:59;2.63;;;1.80;;